Time;durP1;ratioP1;P1;durP2;ratioP2;P2;SDS_P1;SDS_P2;PMS_P1;PMS_P2;Temp;Humidity;BMP_temperature;BMP_pressure;BME280_temperature;BME280_humidity;BME280_pressure;Samples;Min_cycle;Max_cycle;Signal;HPM_P1;HPM_P2
2024/03/26 00:02:08;;;;;;;1.73;1.63;;;7.60;99.90;;;;;;5036551;28;20410;-85
2024/03/26 00:04:34;;;;;;;2.90;1.70;;;7.60;99.90;;;;;;5031555;28;20405;-85
2024/03/26 00:07:00;;;;;;;2.00;1.60;;;7.60;99.90;;;;;;5016693;28;20385;-85
2024/03/26 00:09:26;;;;;;;2.70;1.70;;;7.60;99.90;;;;;;5017367;28;20420;-85
2024/03/26 00:11:51;;;;;;;1.93;1.40;;;7.30;99.90;;;;;;5016195;28;20407;-84
2024/03/26 00:14:17;;;;;;;1.95;1.30;;;7.50;99.90;;;;;;5016880;28;20388;-85
2024/03/26 00:16:42;;;;;;;2.17;1.50;;;7.40;99.90;;;;;;5021067;28;20473;-84
2024/03/26 00:19:08;;;;;;;2.33;1.53;;;7.40;99.90;;;;;;5037029;28;20459;-84
2024/03/26 00:21:34;;;;;;;1.77;1.53;;;7.20;99.90;;;;;;5037329;28;20418;-84
2024/03/26 00:23:59;;;;;;;2.08;1.70;;;7.40;99.90;;;;;;5029990;28;20408;-83
2024/03/26 00:26:25;;;;;;;1.40;1.23;;;6.90;99.90;;;;;;5016117;28;20415;-83
2024/03/26 00:28:51;;;;;;;1.60;1.40;;;7.00;99.90;;;;;;5016821;28;20392;-83
2024/03/26 00:31:16;;;;;;;2.83;1.20;;;7.40;99.90;;;;;;5017400;28;20401;-84
2024/03/26 00:33:42;;;;;;;2.70;1.30;;;7.70;99.90;;;;;;5016167;28;20408;-84
2024/03/26 00:36:08;;;;;;;1.10;0.90;;;7.60;99.90;;;;;;5015753;28;20420;-84
2024/03/26 00:38:34;;;;;;;2.33;1.20;;;7.40;99.90;;;;;;5017035;28;20400;-84
2024/03/26 00:41:00;;;;;;;1.20;1.10;;;7.30;99.90;;;;;;5016335;28;20385;-84
2024/03/26 00:43:26;;;;;;;1.73;1.00;;;7.50;99.90;;;;;;5016618;28;20413;-84
2024/03/26 00:45:52;;;;;;;1.30;1.00;;;7.30;99.90;;;;;;4999333;28;20773;-83
2024/03/26 00:48:18;;;;;;;1.83;1.42;;;7.20;99.90;;;;;;5016765;28;20464;-84
2024/03/26 00:50:43;;;;;;;1.10;1.00;;;7.20;99.90;;;;;;5016414;28;20383;-84
2024/03/26 00:53:09;;;;;;;0.97;0.87;;;7.50;99.90;;;;;;5019769;28;20399;-84
2024/03/26 00:55:35;;;;;;;1.50;1.20;;;7.60;99.90;;;;;;5036543;28;20498;-84
2024/03/26 00:58:00;;;;;;;1.47;1.37;;;7.60;99.90;;;;;;5036018;28;20419;-84
2024/03/26 01:00:26;;;;;;;2.47;0.93;;;7.40;99.90;;;;;;5035914;28;20410;-84
2024/03/26 01:02:51;;;;;;;1.90;0.98;;;7.40;99.90;;;;;;5017435;28;20410;-83
2024/03/26 01:05:17;;;;;;;3.23;1.07;;;7.50;99.90;;;;;;5034740;28;20388;-84
2024/03/26 01:07:42;;;;;;;1.50;1.30;;;7.40;99.90;;;;;;5036864;28;20386;-84
2024/03/26 01:10:08;;;;;;;3.30;1.00;;;7.20;99.90;;;;;;5018842;28;20399;-83
2024/03/26 01:12:34;;;;;;;1.27;1.00;;;7.60;99.90;;;;;;5034097;28;20407;-85
2024/03/26 01:14:59;;;;;;;1.60;1.10;;;7.40;99.90;;;;;;5036588;28;20763;-85
2024/03/26 01:17:25;;;;;;;1.42;1.10;;;7.50;99.90;;;;;;5036744;28;20423;-85
2024/03/26 01:19:51;;;;;;;1.60;1.20;;;6.70;99.90;;;;;;5018955;28;20383;-85
2024/03/26 01:22:16;;;;;;;1.08;0.90;;;7.40;99.90;;;;;;5044156;28;20414;-85
2024/03/26 01:24:42;;;;;;;1.70;1.20;;;7.30;99.90;;;;;;5033628;28;20465;-85
2024/03/26 01:27:07;;;;;;;2.80;0.80;;;6.90;99.90;;;;;;5018473;28;20749;-84
2024/03/26 01:29:33;;;;;;;1.60;0.93;;;6.90;99.90;;;;;;5022460;28;20456;-86
2024/03/26 01:31:58;;;;;;;1.30;1.00;;;7.10;99.90;;;;;;5024330;28;20408;-84
2024/03/26 01:34:24;;;;;;;1.67;0.90;;;7.30;99.90;;;;;;5019734;28;20399;-84
2024/03/26 01:36:49;;;;;;;1.50;0.83;;;7.30;99.90;;;;;;5022673;28;20399;-85
2024/03/26 01:39:15;;;;;;;1.60;1.03;;;6.90;99.90;;;;;;5025162;28;20403;-84
2024/03/26 01:41:41;;;;;;;2.70;1.40;;;6.90;99.90;;;;;;5007144;28;20412;-84
2024/03/26 01:44:08;;;;;;;0.80;0.80;;;7.60;99.90;;;;;;5024382;28;20415;-84
2024/03/26 01:46:36;;;;;;;1.38;1.08;;;7.30;99.90;;;;;;5024981;28;20384;-85
2024/03/26 01:49:07;;;;;;;1.98;1.20;;;7.30;99.90;;;;;;5007532;28;20399;-84
2024/03/26 01:51:34;;;;;;;2.40;1.30;;;7.30;99.90;;;;;;5024853;28;20459;-85
2024/03/26 01:54:02;;;;;;;2.30;0.90;;;7.30;99.90;;;;;;5024255;28;20865;-84
2024/03/26 01:56:28;;;;;;;2.20;0.97;;;6.90;99.90;;;;;;5022518;28;20416;-85
2024/03/26 01:58:53;;;;;;;1.90;1.00;;;7.20;99.90;;;;;;5023209;28;20391;-85
2024/03/26 02:01:21;;;;;;;1.60;0.90;;;7.30;99.90;;;;;;5034614;28;20900;-85
2024/03/26 02:03:46;;;;;;;1.88;1.13;;;7.50;99.90;;;;;;5020474;28;20412;-84
2024/03/26 02:06:12;;;;;;;1.80;1.00;;;7.40;99.90;;;;;;5028455;28;20395;-85
2024/03/26 02:08:39;;;;;;;1.53;1.00;;;7.60;99.90;;;;;;5040461;28;20844;-84
2024/03/26 02:11:04;;;;;;;1.33;0.80;;;7.70;99.90;;;;;;5025899;28;20412;-84
2024/03/26 02:13:30;;;;;;;2.17;1.00;;;7.60;99.90;;;;;;5027098;28;20434;-84
2024/03/26 02:15:56;;;;;;;1.98;0.90;;;7.70;99.90;;;;;;5028135;28;20411;-85
2024/03/26 02:18:21;;;;;;;1.30;0.80;;;7.50;99.90;;;;;;5008877;28;20403;-84
2024/03/26 02:20:47;;;;;;;1.80;1.17;;;7.80;99.90;;;;;;5034372;28;20408;-85
2024/03/26 02:23:13;;;;;;;1.77;1.00;;;7.70;99.90;;;;;;5020240;28;20413;-85
2024/03/26 02:25:38;;;;;;;1.00;0.90;;;7.20;99.90;;;;;;5038300;28;20399;-85
2024/03/26 02:28:04;;;;;;;1.10;0.90;;;7.00;99.90;;;;;;5041193;28;20387;-86
2024/03/26 02:30:30;;;;;;;2.10;1.20;;;7.50;99.90;;;;;;5042437;28;20419;-85
2024/03/26 02:32:55;;;;;;;1.30;1.10;;;7.50;99.90;;;;;;5041997;28;20422;-85
2024/03/26 02:35:21;;;;;;;1.40;1.00;;;7.30;99.90;;;;;;5040816;28;20398;-84
2024/03/26 02:37:48;;;;;;;1.70;1.10;;;7.40;99.90;;;;;;5022171;28;20402;-85
2024/03/26 02:40:13;;;;;;;1.08;0.98;;;7.10;99.90;;;;;;5039639;28;20431;-85
2024/03/26 02:42:39;;;;;;;1.10;1.00;;;7.40;99.90;;;;;;5021768;28;20410;-85
2024/03/26 02:45:05;;;;;;;1.40;1.30;;;7.50;99.90;;;;;;5038920;28;20395;-86
2024/03/26 02:47:31;;;;;;;2.13;1.15;;;7.40;99.90;;;;;;5039074;28;20432;-85
2024/03/26 02:49:56;;;;;;;1.40;1.20;;;7.10;99.90;;;;;;5039250;28;20395;-85
2024/03/26 02:52:22;;;;;;;1.30;1.10;;;7.10;99.90;;;;;;5038374;28;20417;-85
2024/03/26 02:54:48;;;;;;;2.80;1.20;;;7.50;99.90;;;;;;5039761;28;20391;-85
2024/03/26 02:57:13;;;;;;;2.55;1.38;;;7.20;99.90;;;;;;5039709;28;20399;-84
2024/03/26 02:59:39;;;;;;;3.08;1.45;;;7.50;99.90;;;;;;5040056;28;20775;-84
2024/03/26 03:02:04;;;;;;;1.70;1.50;;;7.10;99.90;;;;;;5038511;28;20937;-83
2024/03/26 03:04:30;;;;;;;1.50;1.20;;;7.50;99.90;;;;;;5039658;28;20464;-84
2024/03/26 03:06:55;;;;;;;1.40;1.00;;;7.40;99.90;;;;;;5039916;28;20391;-83
2024/03/26 03:09:22;;;;;;;2.13;1.30;;;7.60;99.90;;;;;;5040061;28;20878;-84
2024/03/26 03:11:47;;;;;;;2.85;1.30;;;7.10;99.90;;;;;;5041481;28;20395;-86
2024/03/26 03:14:13;;;;;;;1.60;1.40;;;7.50;99.90;;;;;;5039651;28;20903;-85
2024/03/26 03:16:38;;;;;;;2.30;1.50;;;7.00;99.90;;;;;;5041270;28;20405;-85
2024/03/26 03:19:04;;;;;;;1.53;1.40;;;7.50;99.90;;;;;;5041132;28;20543;-84
2024/03/26 03:21:29;;;;;;;2.20;1.40;;;6.80;99.90;;;;;;5045686;28;20403;-84
2024/03/26 03:23:55;;;;;;;1.70;1.17;;;7.30;99.90;;;;;;5098562;22;20485;-82
2024/03/26 03:26:20;;;;;;;1.20;1.10;;;7.40;99.90;;;;;;5070292;28;20875;-81
2024/03/26 03:28:46;;;;;;;2.03;1.10;;;7.20;99.90;;;;;;5071585;28;20905;-82
2024/03/26 03:31:11;;;;;;;1.50;1.10;;;7.70;99.90;;;;;;5072624;28;20383;-83
2024/03/26 03:33:37;;;;;;;1.80;1.20;;;7.80;99.90;;;;;;5056290;28;20475;-82
2024/03/26 03:36:03;;;;;;;1.87;1.33;;;6.60;99.90;;;;;;5065425;28;20478;-82
2024/03/26 03:38:28;;;;;;;1.30;1.10;;;7.70;99.90;;;;;;5065899;28;20435;-82
2024/03/26 03:40:54;;;;;;;1.30;1.20;;;7.30;99.90;;;;;;5055360;28;20395;-81
2024/03/26 03:43:19;;;;;;;2.70;1.10;;;7.70;99.90;;;;;;5055637;28;20431;-82
2024/03/26 03:45:45;;;;;;;1.73;1.23;;;7.70;99.90;;;;;;5038126;28;20399;-82
2024/03/26 03:48:10;;;;;;;2.13;1.03;;;7.00;99.90;;;;;;5035954;28;20813;-82
2024/03/26 03:50:36;;;;;;;1.63;1.00;;;7.60;99.90;;;;;;5054798;28;20576;-82
2024/03/26 03:53:01;;;;;;;1.40;1.05;;;7.20;99.90;;;;;;5053490;28;20480;-82
2024/03/26 03:55:27;;;;;;;1.20;0.90;;;7.60;99.90;;;;;;5040773;28;20478;-82
2024/03/26 03:57:53;;;;;;;1.20;0.90;;;7.30;99.90;;;;;;5073094;28;20391;-82
2024/03/26 04:00:18;;;;;;;1.20;1.10;;;7.20;99.90;;;;;;5053672;28;20385;-82
2024/03/26 04:02:44;;;;;;;2.00;1.10;;;11.00;99.90;;;;;;5067112;28;20444;-82
2024/03/26 04:05:09;;;;;;;1.50;1.23;;;7.40;99.90;;;;;;5058153;28;20413;-82
2024/03/26 04:07:35;;;;;;;1.70;1.10;;;7.60;99.90;;;;;;5093268;28;20374;-83
2024/03/26 04:10:01;;;;;;;1.85;1.45;;;7.60;99.90;;;;;;5078871;28;20893;-82
2024/03/26 04:12:27;;;;;;;1.57;1.27;;;6.90;99.90;;;;;;5078843;28;20395;-83
2024/03/26 04:14:53;;;;;;;1.40;1.10;;;7.50;99.90;;;;;;5054954;28;20399;-83
2024/03/26 04:17:19;;;;;;;2.30;1.40;;;7.50;99.90;;;;;;5038807;28;20480;-83
2024/03/26 04:19:45;;;;;;;1.30;1.20;;;7.20;99.90;;;;;;5053615;28;20413;-82
2024/03/26 04:22:10;;;;;;;1.10;1.00;;;7.60;99.90;;;;;;5068372;28;20404;-80
2024/03/26 04:24:36;;;;;;;1.43;1.30;;;7.60;99.90;;;;;;5062326;28;20398;-81
2024/03/26 04:27:01;;;;;;;1.20;1.10;;;7.40;99.90;;;;;;5052708;28;20393;-80
2024/03/26 04:29:27;;;;;;;1.70;1.20;;;7.30;99.90;;;;;;5037953;28;20405;-81
2024/03/26 04:31:53;;;;;;;1.10;1.00;;;8.10;99.90;;;;;;5058054;28;20405;-82
2024/03/26 04:34:19;;;;;;;1.87;1.30;;;7.80;99.90;;;;;;5050455;28;20403;-82
2024/03/26 04:36:45;;;;;;;2.37;1.30;;;6.90;99.90;;;;;;5035013;28;20765;-81
2024/03/26 04:39:11;;;;;;;1.30;1.20;;;7.50;99.90;;;;;;5054256;28;20480;-81
2024/03/26 04:41:37;;;;;;;1.40;0.90;;;7.50;99.90;;;;;;5065461;28;20395;-82
2024/03/26 04:44:03;;;;;;;1.60;0.90;;;7.60;99.90;;;;;;5072884;28;20448;-81
2024/03/26 04:46:30;;;;;;;1.87;1.30;;;7.70;99.90;;;;;;5071372;28;20757;-81
2024/03/26 04:48:55;;;;;;;1.70;1.10;;;7.40;99.90;;;;;;5054455;28;20395;-81
2024/03/26 04:51:21;;;;;;;2.10;0.90;;;8.40;99.90;;;;;;5045501;28;20389;-80
2024/03/26 04:53:47;;;;;;;1.00;0.90;;;7.70;99.90;;;;;;5044904;28;20369;-81
2024/03/26 04:56:14;;;;;;;2.15;1.20;;;7.40;99.90;;;;;;5074559;28;20392;-80
2024/03/26 04:58:40;;;;;;;1.48;1.13;;;8.20;99.90;;;;;;5075652;28;20408;-80
2024/03/26 05:01:05;;;;;;;1.73;1.13;;;7.40;99.90;;;;;;5048917;28;20383;-80
2024/03/26 05:03:31;;;;;;;1.92;1.25;;;7.70;99.90;;;;;;5041497;28;20589;-80
2024/03/26 05:05:56;;;;;;;1.40;1.20;;;7.50;99.90;;;;;;5052244;28;20396;-80
2024/03/26 05:08:22;;;;;;;3.40;1.10;;;8.00;99.90;;;;;;5071057;28;20443;-81
2024/03/26 05:10:48;;;;;;;2.50;1.30;;;9.00;99.90;;;;;;5078657;28;20469;-80
2024/03/26 05:13:14;;;;;;;1.60;1.10;;;7.50;99.90;;;;;;5078183;28;20409;-80
2024/03/26 05:15:40;;;;;;;1.70;1.08;;;7.50;99.90;;;;;;5078210;28;20454;-80
2024/03/26 05:18:06;;;;;;;1.50;1.20;;;7.50;99.90;;;;;;5099351;28;20374;-81
2024/03/26 05:20:32;;;;;;;2.20;1.35;;;7.50;99.90;;;;;;5082242;28;20887;-81
2024/03/26 05:22:57;;;;;;;3.17;1.48;;;7.30;99.90;;;;;;5061664;28;20432;-82
2024/03/26 05:25:23;;;;;;;1.60;1.50;;;7.50;99.90;;;;;;5042475;28;20397;-82
2024/03/26 05:27:48;;;;;;;2.73;1.50;;;7.40;99.90;;;;;;5066510;28;20475;-82
2024/03/26 05:30:14;;;;;;;1.50;1.30;;;7.40;99.90;;;;;;5052661;28;20433;-81
2024/03/26 05:32:40;;;;;;;2.37;1.40;;;7.50;99.90;;;;;;5051097;28;20448;-81
2024/03/26 05:35:05;;;;;;;1.23;1.10;;;7.50;99.90;;;;;;5068022;28;20904;-83
2024/03/26 05:37:31;;;;;;;1.35;1.15;;;7.50;99.90;;;;;;5075803;28;20385;-82
2024/03/26 05:39:56;;;;;;;2.40;1.33;;;6.90;99.90;;;;;;5052577;28;20387;-81
2024/03/26 05:42:22;;;;;;;2.20;1.20;;;7.30;99.90;;;;;;5068460;28;20496;-82
2024/03/26 05:44:47;;;;;;;2.33;1.40;;;7.50;99.90;;;;;;5071658;28;20384;-81
2024/03/26 05:47:13;;;;;;;1.17;1.07;;;7.40;99.90;;;;;;5063481;28;20391;-83
2024/03/26 05:49:38;;;;;;;1.58;1.40;;;7.40;99.90;;;;;;5071525;28;20425;-82
2024/03/26 05:52:05;;;;;;;1.80;1.20;;;6.70;99.90;;;;;;5076269;28;20396;-83
2024/03/26 05:54:30;;;;;;;1.87;1.10;;;7.60;99.90;;;;;;5057352;28;20418;-81
2024/03/26 05:56:56;;;;;;;1.50;1.40;;;7.30;99.90;;;;;;5075391;28;20381;-81
2024/03/26 05:59:22;;;;;;;1.70;1.60;;;7.30;99.90;;;;;;5080629;28;20393;-82
2024/03/26 06:01:47;;;;;;;1.38;1.20;;;7.50;99.90;;;;;;5059590;28;20394;-81
2024/03/26 06:04:13;;;;;;;1.70;1.33;;;7.60;99.90;;;;;;5068190;28;20792;-83
2024/03/26 06:06:39;;;;;;;1.40;1.30;;;7.60;99.90;;;;;;5047059;28;20455;-82
2024/03/26 06:09:04;;;;;;;1.80;1.05;;;7.50;99.90;;;;;;5052513;28;20379;-82
2024/03/26 06:11:30;;;;;;;1.30;1.20;;;7.40;99.90;;;;;;5084255;28;20386;-81
2024/03/26 06:13:55;;;;;;;1.23;1.10;;;6.90;99.90;;;;;;5058575;28;20494;-81
2024/03/26 06:16:21;;;;;;;1.53;1.43;;;7.60;99.90;;;;;;5049906;28;20440;-82
2024/03/26 06:18:46;;;;;;;2.60;1.30;;;7.50;99.90;;;;;;5060789;28;20395;-82
2024/03/26 06:21:12;;;;;;;1.50;1.40;;;7.50;99.90;;;;;;5057162;28;20436;-81
2024/03/26 06:23:37;;;;;;;1.40;1.07;;;7.70;99.90;;;;;;5059730;28;20403;-83
2024/03/26 06:26:03;;;;;;;1.83;1.50;;;7.80;99.90;;;;;;5069161;28;20466;-82
2024/03/26 06:28:29;;;;;;;1.60;1.40;;;7.60;99.90;;;;;;5057040;28;20422;-82
2024/03/26 06:30:54;;;;;;;1.40;1.30;;;8.00;99.90;;;;;;5057149;28;20386;-81
2024/03/26 06:33:20;;;;;;;1.70;1.03;;;7.70;99.90;;;;;;5052794;28;20424;-81
2024/03/26 06:35:45;;;;;;;1.40;1.20;;;7.70;99.90;;;;;;5077777;28;20395;-81
2024/03/26 06:38:11;;;;;;;1.30;1.20;;;7.90;99.90;;;;;;5076311;28;20913;-82
2024/03/26 06:40:37;;;;;;;2.00;1.40;;;8.20;99.90;;;;;;5057983;28;20387;-81
2024/03/26 06:43:04;;;;;;;2.30;1.60;;;8.10;99.90;;;;;;5056228;28;20396;-81
2024/03/26 06:45:30;;;;;;;2.40;1.25;;;8.10;99.90;;;;;;5054454;28;20399;-81
2024/03/26 06:47:56;;;;;;;3.20;1.50;;;7.90;99.90;;;;;;5058368;28;20394;-82
2024/03/26 06:50:22;;;;;;;1.50;1.20;;;8.00;99.90;;;;;;5075529;28;20383;-81
2024/03/26 06:52:49;;;;;;;2.67;1.23;;;8.00;99.90;;;;;;5074906;28;20395;-81
2024/03/26 06:55:16;;;;;;;1.88;1.10;;;8.20;99.90;;;;;;5056767;28;20391;-81
2024/03/26 06:57:42;;;;;;;2.40;1.80;;;8.30;99.90;;;;;;5058147;28;20463;-81
2024/03/26 07:00:09;;;;;;;2.50;1.40;;;8.20;99.90;;;;;;5058172;28;20387;-81
2024/03/26 07:02:37;;;;;;;2.47;1.30;;;8.50;99.90;;;;;;5057678;28;20419;-81
2024/03/26 07:05:05;;;;;;;3.45;2.22;;;8.40;99.90;;;;;;5053747;28;20388;-81
2024/03/26 07:07:31;;;;;;;2.75;1.60;;;8.40;99.90;;;;;;5058081;28;20411;-81
2024/03/26 07:09:57;;;;;;;2.80;1.40;;;8.30;99.90;;;;;;5058328;28;20411;-81
2024/03/26 07:12:23;;;;;;;2.13;1.75;;;8.40;99.90;;;;;;5057099;28;20391;-81
2024/03/26 07:14:49;;;;;;;3.35;1.60;;;9.90;99.90;;;;;;5057597;28;20949;-81
2024/03/26 07:17:14;;;;;;;2.40;1.50;;;8.50;99.90;;;;;;5058556;28;20402;-81
2024/03/26 07:19:40;;;;;;;3.40;1.70;;;8.50;99.90;;;;;;5077160;28;20474;-81
2024/03/26 07:22:05;;;;;;;2.43;1.50;;;8.80;99.90;;;;;;5065515;28;20406;-81
2024/03/26 07:24:31;;;;;;;1.70;1.60;;;9.00;99.90;;;;;;5052697;28;20497;-81
2024/03/26 07:26:56;;;;;;;2.67;1.77;;;11.80;99.90;;;;;;5041660;28;20453;-82
2024/03/26 07:29:22;;;;;;;1.60;1.37;;;9.00;99.90;;;;;;5059395;28;20471;-81
2024/03/26 07:31:48;;;;;;;3.40;1.60;;;8.80;99.90;;;;;;5074908;28;20378;-81
2024/03/26 07:34:13;;;;;;;1.40;1.30;;;9.00;99.90;;;;;;5059069;28;20804;-79
2024/03/26 07:36:39;;;;;;;2.15;1.40;;;9.50;99.90;;;;;;5044229;28;20480;-81
2024/03/26 07:39:04;;;;;;;2.13;1.30;;;9.70;99.90;;;;;;5067855;28;20386;-81
2024/03/26 07:41:30;;;;;;;2.63;1.40;;;9.60;99.90;;;;;;5086626;28;20386;-81
2024/03/26 07:43:55;;;;;;;2.00;1.27;;;9.90;99.90;;;;;;5090524;28;20563;-82
2024/03/26 07:46:21;;;;;;;1.65;1.20;;;9.80;99.90;;;;;;5092763;28;20389;-81
2024/03/26 07:48:46;;;;;;;1.38;1.10;;;10.00;99.90;;;;;;5040266;28;20472;-81
2024/03/26 07:51:15;;;;;;;1.10;1.00;;;9.70;99.90;;;;;;5054548;28;20381;-82
2024/03/26 07:53:41;;;;;;;1.02;0.90;;;9.80;99.90;;;;;;5053803;28;20756;-82
2024/03/26 07:56:08;;;;;;;3.45;1.17;;;10.10;99.90;;;;;;5057873;28;20400;-83
2024/03/26 07:58:34;;;;;;;2.07;1.17;;;10.30;99.90;;;;;;5053816;28;20789;-81
2024/03/26 08:01:00;;;;;;;1.48;1.10;;;10.30;99.90;;;;;;5074130;28;20396;-82
2024/03/26 08:03:26;;;;;;;2.92;0.93;;;10.10;99.90;;;;;;5054796;28;20524;-80
2024/03/26 08:05:52;;;;;;;2.10;1.30;;;10.40;99.90;;;;;;5053967;28;20755;-82
2024/03/26 08:08:17;;;;;;;0.80;0.80;;;10.10;99.90;;;;;;5035980;28;20402;-82
2024/03/26 08:10:43;;;;;;;1.63;1.10;;;10.50;99.90;;;;;;5053480;28;20378;-82
2024/03/26 08:13:11;;;;;;;1.97;1.03;;;10.30;99.90;;;;;;5052284;28;20389;-80
2024/03/26 08:15:37;;;;;;;1.58;1.10;;;10.60;99.90;;;;;;5052187;28;20392;-80
2024/03/26 08:18:03;;;;;;;1.67;0.90;;;10.60;99.90;;;;;;5071895;28;20841;-80
2024/03/26 08:20:30;;;;;;;1.70;1.40;;;10.60;99.90;;;;;;5055099;28;20392;-79
2024/03/26 08:22:56;;;;;;;1.23;0.77;;;10.80;99.90;;;;;;5076432;28;20422;-81
2024/03/26 08:25:22;;;;;;;0.80;0.70;;;10.80;99.90;;;;;;5075600;28;20423;-80
2024/03/26 08:27:48;;;;;;;2.67;1.10;;;10.70;99.90;;;;;;5054472;28;20427;-81
2024/03/26 08:30:13;;;;;;;2.40;1.00;;;10.40;99.90;;;;;;5054811;28;20460;-81
2024/03/26 08:32:39;;;;;;;1.40;0.90;;;11.20;99.90;;;;;;5072372;28;20380;-81
2024/03/26 08:35:05;;;;;;;1.00;0.70;;;11.20;99.90;;;;;;5054686;28;20513;-82
2024/03/26 08:37:31;;;;;;;1.77;0.80;;;11.40;99.90;;;;;;5039315;28;20401;-81
2024/03/26 08:39:56;;;;;;;2.00;0.80;;;11.80;99.90;;;;;;5052179;28;20388;-80
2024/03/26 08:42:23;;;;;;;1.50;1.00;;;12.70;99.90;;;;;;5034182;28;20401;-81
2024/03/26 08:44:49;;;;;;;1.63;0.90;;;11.80;99.90;;;;;;5034796;28;20464;-80
2024/03/26 08:47:14;;;;;;;2.20;1.30;;;10.80;99.90;;;;;;5065022;28;20479;-81
2024/03/26 08:49:40;;;;;;;1.40;0.70;;;;;;;;;;5055490;28;20383;-80
2024/03/26 08:52:05;;;;;;;1.30;0.87;;;11.80;99.90;;;;;;5062406;28;20380;-81
2024/03/26 08:54:31;;;;;;;1.30;0.90;;;11.90;99.90;;;;;;5088567;28;20401;-80
2024/03/26 08:56:57;;;;;;;1.00;0.88;;;12.20;99.90;;;;;;5076979;28;20883;-81
2024/03/26 08:59:22;;;;;;;3.70;1.17;;;12.60;99.90;;;;;;5060952;28;20449;-80
2024/03/26 09:01:48;;;;;;;1.27;1.07;;;12.00;99.90;;;;;;5065738;28;20385;-82
2024/03/26 09:04:13;;;;;;;1.30;1.10;;;11.90;99.90;;;;;;5039685;28;20468;-81
2024/03/26 09:06:38;;;;;;;2.10;1.30;;;12.10;99.90;;;;;;5062417;28;20859;-80
2024/03/26 09:09:05;;;;;;;1.80;0.90;;;12.00;99.90;;;;;;5077181;28;20376;-80
2024/03/26 09:11:31;;;;;;;2.45;1.05;;;13.50;99.90;;;;;;5064997;28;20528;-81
2024/03/26 09:13:56;;;;;;;1.95;1.30;;;12.00;99.90;;;;;;5081830;28;20382;-81
2024/03/26 09:16:22;;;;;;;1.63;1.10;;;12.00;99.90;;;;;;5072307;28;20398;-81
2024/03/26 09:18:47;;;;;;;1.43;0.87;;;12.10;99.90;;;;;;5053406;28;20865;-81
2024/03/26 09:21:13;;;;;;;1.30;1.00;;;12.10;99.90;;;;;;5053263;28;20385;-80
2024/03/26 09:23:38;;;;;;;2.20;1.00;;;12.80;99.90;;;;;;5064901;28;20420;-79
2024/03/26 09:26:07;;;;;;;1.30;0.90;;;;;;;;;;5140296;23;20470;-82
2024/03/26 09:28:37;;;;;;;1.00;0.88;;;;;;;;;;5070991;28;20479;-82
2024/03/26 09:31:03;;;;;;;1.20;0.65;;;;;;;;;;5074866;28;20368;-82
2024/03/26 09:33:31;;;;;;;2.30;0.80;;;12.50;1.00;;;;;;5074705;28;20447;-82
2024/03/26 09:36:09;;;;;;;1.20;0.80;;;;;;;;;;5056727;28;20449;-83
2024/03/26 09:38:49;;;;;;;1.20;0.80;;;;;;;;;;5059387;28;20380;-83
2024/03/26 09:41:26;;;;;;;1.48;0.70;;;;;;;;;;5076791;28;20390;-83
2024/03/26 09:43:53;;;;;;;1.80;0.70;;;;;;;;;;5077324;28;20458;-84
2024/03/26 09:46:22;;;;;;;0.90;0.80;;;;;;;;;;5092060;28;20385;-82
2024/03/26 09:48:48;;;;;;;2.30;0.80;;;12.60;1.00;;;;;;5034403;28;20392;-83
2024/03/26 09:51:14;;;;;;;1.33;0.70;;;12.60;1.00;;;;;;5056291;28;20820;-84
2024/03/26 09:53:49;;;;;;;0.90;0.80;;;12.90;1.00;;;;;;5042283;28;20400;-85
2024/03/26 09:56:19;;;;;;;2.50;1.10;;;12.70;1.00;;;;;;5074801;28;20388;-84
2024/03/26 09:58:47;;;;;;;2.60;1.10;;;13.00;1.00;;;;;;5071102;28;20406;-84
2024/03/26 10:01:13;;;;;;;1.65;0.90;;;;;;;;;;5067815;28;20380;-85
2024/03/26 10:03:39;;;;;;;1.48;1.10;;;12.80;1.00;;;;;;5082096;28;20411;-84
2024/03/26 10:06:05;;;;;;;1.50;1.00;;;12.80;1.00;;;;;;5078594;28;20412;-84
2024/03/26 10:08:31;;;;;;;1.30;0.83;;;13.30;1.00;;;;;;5078714;28;20466;-83
2024/03/26 10:10:56;;;;;;;2.05;1.20;;;13.00;1.00;;;;;;5079231;28;20379;-84
2024/03/26 10:13:22;;;;;;;1.15;1.00;;;14.00;1.00;;;;;;5084012;28;20415;-84
2024/03/26 10:15:48;;;;;;;2.00;0.90;;;13.80;1.00;;;;;;5061780;28;20399;-83
2024/03/26 10:18:14;;;;;;;1.50;0.90;;;12.20;1.00;;;;;;5076099;28;20464;-84
2024/03/26 10:20:40;;;;;;;2.43;1.03;;;13.40;1.00;;;;;;5079150;28;20957;-84
2024/03/26 10:23:08;;;;;;;1.50;1.20;;;13.60;1.00;;;;;;5079652;28;20452;-83
2024/03/26 10:25:34;;;;;;;1.17;1.00;;;13.40;1.00;;;;;;5060263;28;20392;-84
2024/03/26 10:28:01;;;;;;;1.93;1.30;;;13.00;1.00;;;;;;5076238;28;20399;-83
2024/03/26 10:30:27;;;;;;;2.92;1.40;;;14.50;1.00;;;;;;5057992;28;20384;-84
2024/03/26 10:33:00;;;;;;;1.98;1.20;;;14.00;1.00;;;;;;5078709;28;20384;-84
2024/03/26 10:35:29;;;;;;;1.98;1.27;;;13.60;1.00;;;;;;5059998;28;20863;-83
2024/03/26 10:37:56;;;;;;;3.00;1.50;;;14.40;1.00;;;;;;5055377;28;20388;-83
2024/03/26 10:40:22;;;;;;;3.30;1.60;;;13.50;1.00;;;;;;5060252;28;20380;-83
2024/03/26 10:42:59;;;;;;;2.00;1.50;;;14.50;1.00;;;;;;5078039;28;20410;-84
2024/03/26 10:45:25;;;;;;;2.80;1.88;;;13.10;1.00;;;;;;5059658;28;20391;-84
2024/03/26 10:47:53;;;;;;;2.85;1.70;;;12.90;1.00;;;;;;5092456;28;20396;-81
2024/03/26 10:50:19;;;;;;;2.60;1.70;;;13.70;1.00;;;;;;5102091;28;20376;-84
2024/03/26 10:52:47;;;;;;;1.90;1.60;;;13.40;1.00;;;;;;5094497;28;20456;-84
2024/03/26 10:55:13;;;;;;;3.88;1.92;;;13.50;1.00;;;;;;5070843;28;20399;-83
2024/03/26 10:57:41;;;;;;;2.60;1.70;;;13.30;1.00;;;;;;5078576;28;20402;-84
2024/03/26 11:00:10;;;;;;;2.58;1.90;;;13.60;1.00;;;;;;5076730;28;20388;-83
2024/03/26 11:02:56;;;;;;;3.13;1.90;;;13.80;1.00;;;;;;5066752;28;20466;-83
2024/03/26 11:05:25;;;;;;;3.63;2.00;;;14.70;1.00;;;;;;5039597;28;20389;-83
2024/03/26 11:07:51;;;;;;;3.70;2.20;;;12.90;1.00;;;;;;5058926;28;20391;-83
2024/03/26 11:10:17;;;;;;;3.00;1.90;;;13.40;1.00;;;;;;5059091;28;20411;-83
2024/03/26 11:12:47;;;;;;;3.60;2.17;;;14.60;1.00;;;;;;5059957;28;20386;-83
2024/03/26 11:15:22;;;;;;;2.20;2.00;;;14.50;1.00;;;;;;5057908;28;20513;-83
2024/03/26 11:17:59;;;;;;;2.40;1.80;;;15.50;1.00;;;;;;5058054;28;20401;-83
2024/03/26 11:20:27;;;;;;;2.70;2.30;;;15.40;1.00;;;;;;5056348;28;20389;-83
2024/03/26 11:23:05;;;;;;;2.50;2.30;;;14.90;1.00;;;;;;5056192;28;20416;-82
2024/03/26 11:25:32;;;;;;;3.20;2.60;;;14.70;1.00;;;;;;5074880;28;20756;-83
2024/03/26 11:28:00;;;;;;;3.70;3.10;;;14.80;1.00;;;;;;5076161;28;20794;-83
2024/03/26 11:30:30;;;;;;;4.68;2.90;;;15.00;1.00;;;;;;5076775;28;20391;-83
2024/03/26 11:32:57;;;;;;;4.35;2.75;;;14.80;1.00;;;;;;5057981;28;20401;-83
2024/03/26 11:35:25;;;;;;;3.65;2.88;;;14.40;1.00;;;;;;5074042;28;20765;-82
2024/03/26 11:37:52;;;;;;;3.50;3.20;;;14.40;1.00;;;;;;5074530;28;20427;-83
2024/03/26 11:40:18;;;;;;;3.10;2.80;;;15.60;1.00;;;;;;5073463;28;20384;-82
2024/03/26 11:42:45;;;;;;;4.00;3.05;;;14.20;1.00;;;;;;5072735;28;20422;-82
2024/03/26 11:45:11;;;;;;;3.05;2.53;;;15.00;1.00;;;;;;5073267;28;20888;-82
2024/03/26 11:47:37;;;;;;;4.10;2.72;;;14.60;1.00;;;;;;5072300;28;20467;-82
2024/03/26 11:50:03;;;;;;;3.33;2.60;;;15.40;1.00;;;;;;5073543;28;20414;-82
2024/03/26 11:52:28;;;;;;;2.70;2.50;;;15.70;1.00;;;;;;5056240;28;20424;-82
2024/03/26 11:54:56;;;;;;;3.40;2.33;;;15.30;1.00;;;;;;5074522;28;20466;-82
2024/03/26 11:57:23;;;;;;;3.63;2.50;;;16.50;1.00;;;;;;5041147;28;20773;-82
2024/03/26 11:59:49;;;;;;;3.43;2.70;;;16.10;1.00;;;;;;5053140;28;20394;-82
2024/03/26 12:02:15;;;;;;;4.50;3.60;;;16.70;1.00;;;;;;5036333;28;20800;-83
2024/03/26 12:04:43;;;;;;;4.03;3.30;;;16.80;1.00;;;;;;5055497;28;20377;-82
2024/03/26 12:07:12;;;;;;;3.42;2.78;;;17.10;1.00;;;;;;5067079;28;20415;-83
2024/03/26 12:09:38;;;;;;;3.42;3.08;;;16.60;1.00;;;;;;5074770;28;20448;-83
2024/03/26 12:12:05;;;;;;;5.50;3.22;;;16.90;1.00;;;;;;5073384;28;20772;-83
2024/03/26 12:14:30;;;;;;;3.97;3.30;;;17.50;1.00;;;;;;5055967;28;20390;-83
2024/03/26 12:16:56;;;;;;;4.07;3.60;;;17.20;1.00;;;;;;5065207;28;20761;-83
2024/03/26 12:19:21;;;;;;;3.80;3.30;;;17.50;1.00;;;;;;5055107;28;20464;-83
2024/03/26 12:21:48;;;;;;;4.03;2.90;;;17.40;1.00;;;;;;5060982;28;20399;-82
2024/03/26 12:24:14;;;;;;;4.07;3.00;;;16.90;1.00;;;;;;5084051;28;20482;-83
2024/03/26 12:26:43;;;;;;;3.58;3.28;;;16.90;1.00;;;;;;5073231;28;20398;-83
2024/03/26 12:29:09;;;;;;;4.88;3.40;;;18.10;1.00;;;;;;5055356;28;20388;-82
2024/03/26 12:31:36;;;;;;;5.60;3.30;;;17.90;1.00;;;;;;5073481;28;20396;-83
2024/03/26 12:34:12;;;;;;;4.40;3.30;;;17.30;1.00;;;;;;5073011;28;20491;-81
2024/03/26 12:36:38;;;;;;;4.20;2.70;;;17.00;1.00;;;;;;5067534;28;20451;-82
2024/03/26 12:39:05;;;;;;;5.22;3.20;;;16.70;1.00;;;;;;5073554;28;20386;-82
2024/03/26 12:41:34;;;;;;;4.20;3.40;;;16.70;1.00;;;;;;5054139;28;20403;-83
2024/03/26 12:43:59;;;;;;;5.53;3.50;;;18.00;1.00;;;;;;5071750;28;20452;-84
2024/03/26 12:46:27;;;;;;;5.95;3.50;;;18.60;1.00;;;;;;5070233;28;20467;-83
2024/03/26 12:48:55;;;;;;;3.92;3.00;;;17.90;1.00;;;;;;5072176;28;20388;-83
2024/03/26 12:51:22;;;;;;;3.50;2.67;;;17.60;1.00;;;;;;5055210;28;20376;-83
2024/03/26 12:53:48;;;;;;;5.22;3.60;;;17.20;1.00;;;;;;5074223;28;20394;-83